sensor_id;sensor_type;location;lat;lon;timestamp;temperature;humidity
28654;DHT22;24320;56.980;24.336;2023-07-31T00:00:15;12.90;99.90
28654;DHT22;24320;56.980;24.336;2023-07-31T00:02:42;12.90;99.90
28654;DHT22;24320;56.980;24.336;2023-07-31T00:05:09;12.90;99.90
28654;DHT22;24320;56.980;24.336;2023-07-31T00:07:36;12.90;99.90
28654;DHT22;24320;56.980;24.336;2023-07-31T00:10:03;12.90;99.90
28654;DHT22;24320;56.980;24.336;2023-07-31T00:12:31;12.90;99.90
28654;DHT22;24320;56.980;24.336;2023-07-31T00:14:58;13.00;99.90
28654;DHT22;24320;56.980;24.336;2023-07-31T00:17:25;13.00;99.90
28654;DHT22;24320;56.980;24.336;2023-07-31T00:19:52;13.10;99.90
28654;DHT22;24320;56.980;24.336;2023-07-31T00:22:19;13.10;99.90
28654;DHT22;24320;56.980;24.336;2023-07-31T00:24:46;13.20;99.90
28654;DHT22;24320;56.980;24.336;2023-07-31T00:27:13;13.30;99.90
28654;DHT22;24320;56.980;24.336;2023-07-31T00:29:40;13.40;99.90
28654;DHT22;24320;56.980;24.336;2023-07-31T00:32:07;13.40;99.90
28654;DHT22;24320;56.980;24.336;2023-07-31T00:34:34;13.50;99.90
28654;DHT22;24320;56.980;24.336;2023-07-31T00:37:01;13.50;99.90
28654;DHT22;24320;56.980;24.336;2023-07-31T00:39:30;13.50;99.90
28654;DHT22;24320;56.980;24.336;2023-07-31T00:41:57;13.50;99.90
28654;DHT22;24320;56.980;24.336;2023-07-31T00:44:24;13.50;99.90
28654;DHT22;24320;56.980;24.336;2023-07-31T00:46:51;13.50;99.90
28654;DHT22;24320;56.980;24.336;2023-07-31T00:49:18;13.50;99.90
28654;DHT22;24320;56.980;24.336;2023-07-31T00:51:45;13.50;99.90
28654;DHT22;24320;56.980;24.336;2023-07-31T00:54:12;13.60;99.90
28654;DHT22;24320;56.980;24.336;2023-07-31T00:56:40;13.70;99.90
28654;DHT22;24320;56.980;24.336;2023-07-31T00:59:07;13.80;99.90
28654;DHT22;24320;56.980;24.336;2023-07-31T01:01:34;13.80;99.90
28654;DHT22;24320;56.980;24.336;2023-07-31T01:04:02;13.90;99.90
28654;DHT22;24320;56.980;24.336;2023-07-31T01:06:35;13.90;99.90
28654;DHT22;24320;56.980;24.336;2023-07-31T01:09:16;13.90;99.90
28654;DHT22;24320;56.980;24.336;2023-07-31T01:11:53;14.00;99.90
28654;DHT22;24320;56.980;24.336;2023-07-31T01:14:20;13.90;99.90
28654;DHT22;24320;56.980;24.336;2023-07-31T01:16:47;13.90;99.90
28654;DHT22;24320;56.980;24.336;2023-07-31T01:19:22;13.90;99.90
28654;DHT22;24320;56.980;24.336;2023-07-31T01:24:23;13.80;99.90
28654;DHT22;24320;56.980;24.336;2023-07-31T01:27:12;13.70;99.90
28654;DHT22;24320;56.980;24.336;2023-07-31T01:29:53;13.60;99.90
28654;DHT22;24320;56.980;24.336;2023-07-31T01:32:22;13.50;99.90
28654;DHT22;24320;56.980;24.336;2023-07-31T01:34:52;13.40;99.90
28654;DHT22;24320;56.980;24.336;2023-07-31T01:37:20;13.30;99.90
28654;DHT22;24320;56.980;24.336;2023-07-31T01:39:47;13.30;99.90
28654;DHT22;24320;56.980;24.336;2023-07-31T01:42:14;13.30;99.90
28654;DHT22;24320;56.980;24.336;2023-07-31T01:44:41;13.20;99.90
28654;DHT22;24320;56.980;24.336;2023-07-31T01:47:08;13.20;99.90
28654;DHT22;24320;56.980;24.336;2023-07-31T01:49:35;13.20;99.90
28654;DHT22;24320;56.980;24.336;2023-07-31T01:52:02;13.20;99.90
28654;DHT22;24320;56.980;24.336;2023-07-31T01:54:29;13.10;99.90
28654;DHT22;24320;56.980;24.336;2023-07-31T01:56:56;13.20;99.90
28654;DHT22;24320;56.980;24.336;2023-07-31T01:59:23;13.10;99.90
28654;DHT22;24320;56.980;24.336;2023-07-31T02:01:50;13.10;99.90
28654;DHT22;24320;56.980;24.336;2023-07-31T02:04:20;13.10;99.90
28654;DHT22;24320;56.980;24.336;2023-07-31T02:06:47;13.10;99.90
28654;DHT22;24320;56.980;24.336;2023-07-31T02:09:14;13.10;99.90
28654;DHT22;24320;56.980;24.336;2023-07-31T02:11:41;13.20;99.90
28654;DHT22;24320;56.980;24.336;2023-07-31T02:14:09;13.20;99.90
28654;DHT22;24320;56.980;24.336;2023-07-31T02:16:36;13.20;99.90
28654;DHT22;24320;56.980;24.336;2023-07-31T02:19:03;13.20;99.90
28654;DHT22;24320;56.980;24.336;2023-07-31T02:21:30;13.20;99.90
28654;DHT22;24320;56.980;24.336;2023-07-31T02:23:57;13.20;99.90
28654;DHT22;24320;56.980;24.336;2023-07-31T02:26:24;13.20;99.90
28654;DHT22;24320;56.980;24.336;2023-07-31T02:28:51;13.30;99.90
28654;DHT22;24320;56.980;24.336;2023-07-31T02:31:18;13.40;99.90
28654;DHT22;24320;56.980;24.336;2023-07-31T02:33:48;13.40;99.90
28654;DHT22;24320;56.980;24.336;2023-07-31T02:36:15;13.50;99.90
28654;DHT22;24320;56.980;24.336;2023-07-31T02:38:42;13.60;99.90
28654;DHT22;24320;56.980;24.336;2023-07-31T02:41:09;13.70;99.90
28654;DHT22;24320;56.980;24.336;2023-07-31T02:43:36;13.70;99.90
28654;DHT22;24320;56.980;24.336;2023-07-31T02:46:03;13.80;99.90
28654;DHT22;24320;56.980;24.336;2023-07-31T02:48:31;13.80;99.90
28654;DHT22;24320;56.980;24.336;2023-07-31T02:50:58;13.90;99.90
28654;DHT22;24320;56.980;24.336;2023-07-31T02:53:25;13.90;99.90
28654;DHT22;24320;56.980;24.336;2023-07-31T02:55:52;13.90;99.90
28654;DHT22;24320;56.980;24.336;2023-07-31T02:58:19;13.90;99.90
28654;DHT22;24320;56.980;24.336;2023-07-31T03:00:46;13.90;99.90
28654;DHT22;24320;56.980;24.336;2023-07-31T03:03:13;13.80;99.90
28654;DHT22;24320;56.980;24.336;2023-07-31T03:05:40;13.90;99.90
28654;DHT22;24320;56.980;24.336;2023-07-31T03:08:07;13.90;99.90
28654;DHT22;24320;56.980;24.336;2023-07-31T03:10:34;14.00;99.90
28654;DHT22;24320;56.980;24.336;2023-07-31T03:13:01;14.00;99.90
28654;DHT22;24320;56.980;24.336;2023-07-31T03:15:28;14.10;99.90
28654;DHT22;24320;56.980;24.336;2023-07-31T03:17:55;14.20;99.90
28654;DHT22;24320;56.980;24.336;2023-07-31T03:20:22;14.40;99.90
28654;DHT22;24320;56.980;24.336;2023-07-31T03:22:49;14.50;99.90
28654;DHT22;24320;56.980;24.336;2023-07-31T03:25:16;14.50;99.90
28654;DHT22;24320;56.980;24.336;2023-07-31T03:27:43;14.60;99.90
28654;DHT22;24320;56.980;24.336;2023-07-31T03:30:10;14.60;99.90
28654;DHT22;24320;56.980;24.336;2023-07-31T03:32:37;14.60;99.90
28654;DHT22;24320;56.980;24.336;2023-07-31T03:35:05;14.60;99.90
28654;DHT22;24320;56.980;24.336;2023-07-31T03:37:32;14.70;99.90
28654;DHT22;24320;56.980;24.336;2023-07-31T03:39:59;14.80;99.90
28654;DHT22;24320;56.980;24.336;2023-07-31T03:42:26;14.90;99.90
28654;DHT22;24320;56.980;24.336;2023-07-31T03:44:53;15.00;99.90
28654;DHT22;24320;56.980;24.336;2023-07-31T03:47:20;15.10;99.90
28654;DHT22;24320;56.980;24.336;2023-07-31T03:49:47;15.20;99.90
28654;DHT22;24320;56.980;24.336;2023-07-31T03:52:14;15.40;99.90
28654;DHT22;24320;56.980;24.336;2023-07-31T03:54:41;15.80;99.90
28654;DHT22;24320;56.980;24.336;2023-07-31T03:57:11;16.00;99.90
28654;DHT22;24320;56.980;24.336;2023-07-31T03:59:38;16.10;99.90
28654;DHT22;24320;56.980;24.336;2023-07-31T04:02:06;16.10;99.90
28654;DHT22;24320;56.980;24.336;2023-07-31T04:04:33;15.90;99.90
28654;DHT22;24320;56.980;24.336;2023-07-31T04:07:02;15.90;99.90
28654;DHT22;24320;56.980;24.336;2023-07-31T04:09:29;15.80;99.90
28654;DHT22;24320;56.980;24.336;2023-07-31T04:11:56;15.80;99.90
28654;DHT22;24320;56.980;24.336;2023-07-31T04:14:23;15.80;99.90
28654;DHT22;24320;56.980;24.336;2023-07-31T04:16:50;15.80;99.90
28654;DHT22;24320;56.980;24.336;2023-07-31T04:19:17;16.00;99.90
28654;DHT22;24320;56.980;24.336;2023-07-31T04:21:50;16.20;99.90
28654;DHT22;24320;56.980;24.336;2023-07-31T04:24:17;16.60;99.90
28654;DHT22;24320;56.980;24.336;2023-07-31T04:26:52;16.80;99.90
28654;DHT22;24320;56.980;24.336;2023-07-31T04:29:19;17.10;99.90
28654;DHT22;24320;56.980;24.336;2023-07-31T04:31:48;17.40;99.90
28654;DHT22;24320;56.980;24.336;2023-07-31T04:34:15;17.80;99.90
28654;DHT22;24320;56.980;24.336;2023-07-31T04:36:42;18.20;99.90
28654;DHT22;24320;56.980;24.336;2023-07-31T04:39:09;18.40;99.90
28654;DHT22;24320;56.980;24.336;2023-07-31T04:41:36;18.50;99.90
28654;DHT22;24320;56.980;24.336;2023-07-31T04:44:03;18.50;99.90
28654;DHT22;24320;56.980;24.336;2023-07-31T04:46:30;18.50;99.90
28654;DHT22;24320;56.980;24.336;2023-07-31T04:48:57;18.40;99.90
28654;DHT22;24320;56.980;24.336;2023-07-31T04:51:24;18.30;99.90
28654;DHT22;24320;56.980;24.336;2023-07-31T04:53:52;18.00;99.90
28654;DHT22;24320;56.980;24.336;2023-07-31T04:56:19;17.90;99.90
28654;DHT22;24320;56.980;24.336;2023-07-31T04:58:46;17.80;99.90
28654;DHT22;24320;56.980;24.336;2023-07-31T05:01:13;17.70;99.90
28654;DHT22;24320;56.980;24.336;2023-07-31T05:03:44;17.70;99.90
28654;DHT22;24320;56.980;24.336;2023-07-31T05:06:11;17.70;99.90
28654;DHT22;24320;56.980;24.336;2023-07-31T05:08:39;17.80;99.90
28654;DHT22;24320;56.980;24.336;2023-07-31T05:11:06;17.90;99.90
28654;DHT22;24320;56.980;24.336;2023-07-31T05:13:33;18.00;99.90
28654;DHT22;24320;56.980;24.336;2023-07-31T05:16:00;18.20;99.90
28654;DHT22;24320;56.980;24.336;2023-07-31T05:18:29;18.40;99.90
28654;DHT22;24320;56.980;24.336;2023-07-31T05:20:56;18.50;99.90
28654;DHT22;24320;56.980;24.336;2023-07-31T05:23:23;18.50;99.90
28654;DHT22;24320;56.980;24.336;2023-07-31T05:25:50;18.60;99.90
28654;DHT22;24320;56.980;24.336;2023-07-31T05:28:17;18.70;99.90
28654;DHT22;24320;56.980;24.336;2023-07-31T05:30:44;18.80;99.90
28654;DHT22;24320;56.980;24.336;2023-07-31T05:33:12;18.80;99.90
28654;DHT22;24320;56.980;24.336;2023-07-31T05:35:40;18.90;99.90
28654;DHT22;24320;56.980;24.336;2023-07-31T05:38:07;18.90;99.90
28654;DHT22;24320;56.980;24.336;2023-07-31T05:40:35;19.00;99.90
28654;DHT22;24320;56.980;24.336;2023-07-31T05:43:02;18.90;99.90
28654;DHT22;24320;56.980;24.336;2023-07-31T05:45:29;18.90;99.90
28654;DHT22;24320;56.980;24.336;2023-07-31T05:47:56;18.70;99.90
28654;DHT22;24320;56.980;24.336;2023-07-31T05:50:23;18.70;99.90
28654;DHT22;24320;56.980;24.336;2023-07-31T05:52:50;18.70;99.90
28654;DHT22;24320;56.980;24.336;2023-07-31T05:55:17;18.80;99.90
28654;DHT22;24320;56.980;24.336;2023-07-31T05:57:44;18.80;99.90
28654;DHT22;24320;56.980;24.336;2023-07-31T06:00:13;18.90;99.90
28654;DHT22;24320;56.980;24.336;2023-07-31T06:02:40;18.90;99.90
28654;DHT22;24320;56.980;24.336;2023-07-31T06:05:07;18.80;99.90
28654;DHT22;24320;56.980;24.336;2023-07-31T06:07:35;18.90;99.90
28654;DHT22;24320;56.980;24.336;2023-07-31T06:10:02;19.10;99.90
28654;DHT22;24320;56.980;24.336;2023-07-31T06:12:33;19.30;99.90
28654;DHT22;24320;56.980;24.336;2023-07-31T06:15:01;19.50;99.90
28654;DHT22;24320;56.980;24.336;2023-07-31T06:17:28;19.70;99.90
28654;DHT22;24320;56.980;24.336;2023-07-31T06:19:57;19.80;99.90
28654;DHT22;24320;56.980;24.336;2023-07-31T06:22:24;20.00;99.90
28654;DHT22;24320;56.980;24.336;2023-07-31T06:24:51;20.30;99.90
28654;DHT22;24320;56.980;24.336;2023-07-31T06:27:18;20.50;99.90
28654;DHT22;24320;56.980;24.336;2023-07-31T06:29:45;20.70;99.90
28654;DHT22;24320;56.980;24.336;2023-07-31T06:32:12;20.80;99.90
28654;DHT22;24320;56.980;24.336;2023-07-31T06:34:39;21.00;99.90
28654;DHT22;24320;56.980;24.336;2023-07-31T06:37:06;21.30;99.90
28654;DHT22;24320;56.980;24.336;2023-07-31T06:39:33;21.50;99.90
28654;DHT22;24320;56.980;24.336;2023-07-31T06:42:00;21.80;99.90
28654;DHT22;24320;56.980;24.336;2023-07-31T06:44:27;22.10;99.90
28654;DHT22;24320;56.980;24.336;2023-07-31T06:46:54;22.00;99.90
28654;DHT22;24320;56.980;24.336;2023-07-31T06:49:21;21.90;99.90
28654;DHT22;24320;56.980;24.336;2023-07-31T06:51:50;21.80;99.90
28654;DHT22;24320;56.980;24.336;2023-07-31T06:54:17;21.60;99.90
28654;DHT22;24320;56.980;24.336;2023-07-31T06:56:44;21.30;99.90
28654;DHT22;24320;56.980;24.336;2023-07-31T06:59:11;21.10;99.90
28654;DHT22;24320;56.980;24.336;2023-07-31T07:01:38;21.30;99.90
28654;DHT22;24320;56.980;24.336;2023-07-31T07:04:05;21.30;99.90
28654;DHT22;24320;56.980;24.336;2023-07-31T07:06:32;21.10;99.90
28654;DHT22;24320;56.980;24.336;2023-07-31T07:08:59;21.00;99.90
28654;DHT22;24320;56.980;24.336;2023-07-31T07:11:26;20.90;99.90
28654;DHT22;24320;56.980;24.336;2023-07-31T07:13:53;20.80;99.90
28654;DHT22;24320;56.980;24.336;2023-07-31T07:16:20;20.80;99.90
28654;DHT22;24320;56.980;24.336;2023-07-31T07:18:47;21.00;99.90
28654;DHT22;24320;56.980;24.336;2023-07-31T07:21:30;21.30;99.90
28654;DHT22;24320;56.980;24.336;2023-07-31T07:23:57;21.40;99.90
28654;DHT22;24320;56.980;24.336;2023-07-31T07:26:24;21.40;99.90
28654;DHT22;24320;56.980;24.336;2023-07-31T07:28:51;21.90;99.90
28654;DHT22;24320;56.980;24.336;2023-07-31T07:31:18;22.20;99.90
28654;DHT22;24320;56.980;24.336;2023-07-31T07:33:45;22.50;99.90
28654;DHT22;24320;56.980;24.336;2023-07-31T07:36:12;22.90;99.90
28654;DHT22;24320;56.980;24.336;2023-07-31T07:38:40;23.30;99.90
28654;DHT22;24320;56.980;24.336;2023-07-31T07:41:08;23.60;99.90
28654;DHT22;24320;56.980;24.336;2023-07-31T07:43:35;24.10;99.90
28654;DHT22;24320;56.980;24.336;2023-07-31T07:46:02;24.40;99.90
28654;DHT22;24320;56.980;24.336;2023-07-31T07:48:29;24.40;99.90
28654;DHT22;24320;56.980;24.336;2023-07-31T07:50:56;24.10;99.90
28654;DHT22;24320;56.980;24.336;2023-07-31T07:53:23;23.80;99.90
28654;DHT22;24320;56.980;24.336;2023-07-31T07:55:50;23.40;99.90
28654;DHT22;24320;56.980;24.336;2023-07-31T07:58:17;23.10;99.90
28654;DHT22;24320;56.980;24.336;2023-07-31T08:00:50;22.80;99.90
28654;DHT22;24320;56.980;24.336;2023-07-31T08:03:17;22.50;99.90
28654;DHT22;24320;56.980;24.336;2023-07-31T08:05:46;22.30;99.90
28654;DHT22;24320;56.980;24.336;2023-07-31T08:08:16;22.40;99.90
28654;DHT22;24320;56.980;24.336;2023-07-31T08:10:43;22.80;99.90
28654;DHT22;24320;56.980;24.336;2023-07-31T08:13:12;23.20;99.90
28654;DHT22;24320;56.980;24.336;2023-07-31T08:15:41;23.40;99.90
28654;DHT22;24320;56.980;24.336;2023-07-31T08:18:09;23.80;99.90
28654;DHT22;24320;56.980;24.336;2023-07-31T08:20:36;24.40;99.90
28654;DHT22;24320;56.980;24.336;2023-07-31T08:23:04;24.80;99.90
28654;DHT22;24320;56.980;24.336;2023-07-31T08:25:34;25.10;99.90
28654;DHT22;24320;56.980;24.336;2023-07-31T08:28:02;25.30;99.90
28654;DHT22;24320;56.980;24.336;2023-07-31T08:30:30;25.50;99.90
28654;DHT22;24320;56.980;24.336;2023-07-31T08:32:57;25.60;99.90
28654;DHT22;24320;56.980;24.336;2023-07-31T08:35:25;25.50;99.90
28654;DHT22;24320;56.980;24.336;2023-07-31T08:37:52;25.50;99.90
28654;DHT22;24320;56.980;24.336;2023-07-31T08:40:19;25.50;99.90
28654;DHT22;24320;56.980;24.336;2023-07-31T08:42:48;25.50;99.90
28654;DHT22;24320;56.980;24.336;2023-07-31T08:45:16;25.40;99.90
28654;DHT22;24320;56.980;24.336;2023-07-31T08:47:51;25.20;99.90
28654;DHT22;24320;56.980;24.336;2023-07-31T08:50:19;24.70;99.90
28654;DHT22;24320;56.980;24.336;2023-07-31T08:52:48;24.30;99.90
28654;DHT22;24320;56.980;24.336;2023-07-31T08:55:16;23.90;99.90
28654;DHT22;24320;56.980;24.336;2023-07-31T08:57:44;23.60;99.90
28654;DHT22;24320;56.980;24.336;2023-07-31T09:00:14;23.40;99.90
28654;DHT22;24320;56.980;24.336;2023-07-31T09:03:00;23.10;99.90
28654;DHT22;24320;56.980;24.336;2023-07-31T09:05:31;22.90;99.90
28654;DHT22;24320;56.980;24.336;2023-07-31T09:08:00;22.90;99.90
28654;DHT22;24320;56.980;24.336;2023-07-31T09:10:29;23.00;99.90
28654;DHT22;24320;56.980;24.336;2023-07-31T09:12:56;23.10;99.90
28654;DHT22;24320;56.980;24.336;2023-07-31T09:15:24;23.10;99.90
28654;DHT22;24320;56.980;24.336;2023-07-31T09:18:03;23.00;99.90
28654;DHT22;24320;56.980;24.336;2023-07-31T09:20:32;22.90;99.90
28654;DHT22;24320;56.980;24.336;2023-07-31T09:23:11;22.80;99.90
28654;DHT22;24320;56.980;24.336;2023-07-31T09:25:39;22.60;99.90
28654;DHT22;24320;56.980;24.336;2023-07-31T09:28:08;22.30;99.90
28654;DHT22;24320;56.980;24.336;2023-07-31T09:30:49;22.10;99.90
28654;DHT22;24320;56.980;24.336;2023-07-31T09:33:17;21.70;99.90
28654;DHT22;24320;56.980;24.336;2023-07-31T09:35:46;21.30;99.90
28654;DHT22;24320;56.980;24.336;2023-07-31T09:38:15;20.90;99.90
28654;DHT22;24320;56.980;24.336;2023-07-31T09:40:45;20.60;99.90
28654;DHT22;24320;56.980;24.336;2023-07-31T09:43:16;20.20;99.90
28654;DHT22;24320;56.980;24.336;2023-07-31T09:45:45;19.90;99.90
28654;DHT22;24320;56.980;24.336;2023-07-31T09:48:14;19.60;99.90
28654;DHT22;24320;56.980;24.336;2023-07-31T09:50:45;19.40;99.90
28654;DHT22;24320;56.980;24.336;2023-07-31T09:53:13;19.20;99.90
28654;DHT22;24320;56.980;24.336;2023-07-31T09:55:41;19.10;99.90
28654;DHT22;24320;56.980;24.336;2023-07-31T09:58:10;19.00;99.90
28654;DHT22;24320;56.980;24.336;2023-07-31T10:00:38;18.90;99.90
28654;DHT22;24320;56.980;24.336;2023-07-31T10:03:09;18.90;99.90
28654;DHT22;24320;56.980;24.336;2023-07-31T10:08:06;19.00;99.90
28654;DHT22;24320;56.980;24.336;2023-07-31T10:10:36;19.30;99.90
28654;DHT22;24320;56.980;24.336;2023-07-31T10:13:04;19.50;99.90
28654;DHT22;24320;56.980;24.336;2023-07-31T10:15:32;19.70;99.90
28654;DHT22;24320;56.980;24.336;2023-07-31T10:18:00;19.80;99.90
28654;DHT22;24320;56.980;24.336;2023-07-31T10:20:28;19.90;99.90
28654;DHT22;24320;56.980;24.336;2023-07-31T10:22:56;20.10;99.90
28654;DHT22;24320;56.980;24.336;2023-07-31T10:25:23;20.20;99.90
28654;DHT22;24320;56.980;24.336;2023-07-31T10:27:52;20.10;99.90
28654;DHT22;24320;56.980;24.336;2023-07-31T10:30:24;20.20;99.90
28654;DHT22;24320;56.980;24.336;2023-07-31T10:32:53;20.10;99.90
28654;DHT22;24320;56.980;24.336;2023-07-31T10:35:21;20.10;99.90
28654;DHT22;24320;56.980;24.336;2023-07-31T10:37:52;20.30;99.90
28654;DHT22;24320;56.980;24.336;2023-07-31T10:40:24;20.60;99.90
28654;DHT22;24320;56.980;24.336;2023-07-31T10:42:53;20.90;99.90
28654;DHT22;24320;56.980;24.336;2023-07-31T10:45:42;21.40;99.90
28654;DHT22;24320;56.980;24.336;2023-07-31T10:48:14;21.80;99.90
28654;DHT22;24320;56.980;24.336;2023-07-31T10:50:48;22.10;99.90
28654;DHT22;24320;56.980;24.336;2023-07-31T10:56:01;22.30;99.90
28654;DHT22;24320;56.980;24.336;2023-07-31T10:58:28;22.30;99.90
28654;DHT22;24320;56.980;24.336;2023-07-31T11:00:57;22.40;99.90
28654;DHT22;24320;56.980;24.336;2023-07-31T11:03:43;22.30;99.90
28654;DHT22;24320;56.980;24.336;2023-07-31T11:06:11;22.10;99.90
28654;DHT22;24320;56.980;24.336;2023-07-31T11:08:43;22.10;99.90
28654;DHT22;24320;56.980;24.336;2023-07-31T11:11:13;22.30;99.90
28654;DHT22;24320;56.980;24.336;2023-07-31T11:13:42;22.60;99.90
28654;DHT22;24320;56.980;24.336;2023-07-31T11:16:11;22.80;99.90
28654;DHT22;24320;56.980;24.336;2023-07-31T11:18:40;22.80;99.90
28654;DHT22;24320;56.980;24.336;2023-07-31T11:21:12;22.70;99.90
28654;DHT22;24320;56.980;24.336;2023-07-31T11:23:40;22.90;99.90
28654;DHT22;24320;56.980;24.336;2023-07-31T11:26:07;23.10;99.90
28654;DHT22;24320;56.980;24.336;2023-07-31T11:28:35;23.20;99.90
28654;DHT22;24320;56.980;24.336;2023-07-31T11:31:03;23.40;99.90
28654;DHT22;24320;56.980;24.336;2023-07-31T11:33:30;23.40;99.90
28654;DHT22;24320;56.980;24.336;2023-07-31T11:35:57;23.10;99.90
28654;DHT22;24320;56.980;24.336;2023-07-31T11:38:29;22.70;99.90
28654;DHT22;24320;56.980;24.336;2023-07-31T11:41:02;22.50;99.90
28654;DHT22;24320;56.980;24.336;2023-07-31T11:43:30;22.40;99.90
28654;DHT22;24320;56.980;24.336;2023-07-31T11:46:00;22.40;99.90
28654;DHT22;24320;56.980;24.336;2023-07-31T11:48:34;22.50;99.90
28654;DHT22;24320;56.980;24.336;2023-07-31T11:51:04;22.50;99.90
28654;DHT22;24320;56.980;24.336;2023-07-31T11:53:43;22.70;99.90
28654;DHT22;24320;56.980;24.336;2023-07-31T11:56:14;23.00;99.90
28654;DHT22;24320;56.980;24.336;2023-07-31T11:58:44;23.20;99.90
28654;DHT22;24320;56.980;24.336;2023-07-31T12:01:14;23.30;99.90
28654;DHT22;24320;56.980;24.336;2023-07-31T12:03:44;23.10;99.90
28654;DHT22;24320;56.980;24.336;2023-07-31T12:06:12;22.90;99.90
28654;DHT22;24320;56.980;24.336;2023-07-31T12:08:39;22.60;99.90
28654;DHT22;24320;56.980;24.336;2023-07-31T12:11:08;22.40;99.90
28654;DHT22;24320;56.980;24.336;2023-07-31T12:13:40;22.50;99.90
28654;DHT22;24320;56.980;24.336;2023-07-31T12:16:07;22.50;99.90
28654;DHT22;24320;56.980;24.336;2023-07-31T12:18:37;22.60;99.90
28654;DHT22;24320;56.980;24.336;2023-07-31T12:21:06;22.90;99.90
28654;DHT22;24320;56.980;24.336;2023-07-31T12:23:36;23.30;99.90
28654;DHT22;24320;56.980;24.336;2023-07-31T12:28:46;23.50;99.90
28654;DHT22;24320;56.980;24.336;2023-07-31T12:31:19;23.50;99.90
28654;DHT22;24320;56.980;24.336;2023-07-31T12:33:48;23.50;99.90
28654;DHT22;24320;56.980;24.336;2023-07-31T12:36:19;23.50;99.90
28654;DHT22;24320;56.980;24.336;2023-07-31T12:38:47;23.40;99.90
28654;DHT22;24320;56.980;24.336;2023-07-31T12:41:14;23.20;99.90
28654;DHT22;24320;56.980;24.336;2023-07-31T12:43:42;23.00;99.90
28654;DHT22;24320;56.980;24.336;2023-07-31T12:46:09;22.80;99.90
28654;DHT22;24320;56.980;24.336;2023-07-31T12:48:38;22.50;99.90
28654;DHT22;24320;56.980;24.336;2023-07-31T12:51:06;22.50;99.90
28654;DHT22;24320;56.980;24.336;2023-07-31T12:53:36;22.70;99.90
28654;DHT22;24320;56.980;24.336;2023-07-31T12:56:03;22.90;99.90
28654;DHT22;24320;56.980;24.336;2023-07-31T12:58:30;23.10;99.90
28654;DHT22;24320;56.980;24.336;2023-07-31T13:00:57;23.20;99.90
28654;DHT22;24320;56.980;24.336;2023-07-31T13:03:24;23.20;99.90
28654;DHT22;24320;56.980;24.336;2023-07-31T13:05:52;23.30;99.90
28654;DHT22;24320;56.980;24.336;2023-07-31T13:08:19;23.30;99.90
28654;DHT22;24320;56.980;24.336;2023-07-31T13:10:46;23.30;99.90
28654;DHT22;24320;56.980;24.336;2023-07-31T13:13:14;23.10;99.90
28654;DHT22;24320;56.980;24.336;2023-07-31T13:15:41;23.10;99.90
28654;DHT22;24320;56.980;24.336;2023-07-31T13:18:09;23.10;99.90
28654;DHT22;24320;56.980;24.336;2023-07-31T13:20:36;23.20;99.90
28654;DHT22;24320;56.980;24.336;2023-07-31T13:23:03;23.20;99.90
28654;DHT22;24320;56.980;24.336;2023-07-31T13:25:30;23.20;99.90
28654;DHT22;24320;56.980;24.336;2023-07-31T13:27:57;23.20;99.90
28654;DHT22;24320;56.980;24.336;2023-07-31T13:30:27;23.10;99.90
28654;DHT22;24320;56.980;24.336;2023-07-31T13:32:54;23.20;99.90
28654;DHT22;24320;56.980;24.336;2023-07-31T13:35:21;23.30;99.90
28654;DHT22;24320;56.980;24.336;2023-07-31T13:37:48;23.30;99.90
28654;DHT22;24320;56.980;24.336;2023-07-31T13:40:15;23.30;99.90
28654;DHT22;24320;56.980;24.336;2023-07-31T13:42:42;23.30;99.90
28654;DHT22;24320;56.980;24.336;2023-07-31T13:45:10;23.20;99.90
28654;DHT22;24320;56.980;24.336;2023-07-31T13:47:37;23.10;99.90
28654;DHT22;24320;56.980;24.336;2023-07-31T13:50:04;23.00;99.90
28654;DHT22;24320;56.980;24.336;2023-07-31T13:52:32;23.10;99.90
28654;DHT22;24320;56.980;24.336;2023-07-31T13:54:59;23.30;99.90
28654;DHT22;24320;56.980;24.336;2023-07-31T13:57:26;23.40;99.90
28654;DHT22;24320;56.980;24.336;2023-07-31T13:59:53;23.40;99.90
28654;DHT22;24320;56.980;24.336;2023-07-31T14:02:20;23.40;99.90
28654;DHT22;24320;56.980;24.336;2023-07-31T14:04:47;23.50;99.90
28654;DHT22;24320;56.980;24.336;2023-07-31T14:07:16;23.40;99.90
28654;DHT22;24320;56.980;24.336;2023-07-31T14:09:44;23.20;99.90
28654;DHT22;24320;56.980;24.336;2023-07-31T14:12:11;22.90;99.90
28654;DHT22;24320;56.980;24.336;2023-07-31T14:14:38;22.90;99.90
28654;DHT22;24320;56.980;24.336;2023-07-31T14:17:05;22.80;99.90
28654;DHT22;24320;56.980;24.336;2023-07-31T14:19:32;22.70;99.90
28654;DHT22;24320;56.980;24.336;2023-07-31T14:22:00;22.60;99.90
28654;DHT22;24320;56.980;24.336;2023-07-31T14:24:38;22.40;99.90
28654;DHT22;24320;56.980;24.336;2023-07-31T14:27:05;22.10;99.90
28654;DHT22;24320;56.980;24.336;2023-07-31T14:29:32;21.90;99.90
28654;DHT22;24320;56.980;24.336;2023-07-31T14:31:59;21.90;99.90
28654;DHT22;24320;56.980;24.336;2023-07-31T14:34:27;21.80;99.90
28654;DHT22;24320;56.980;24.336;2023-07-31T14:36:54;22.00;99.90
28654;DHT22;24320;56.980;24.336;2023-07-31T14:39:21;22.10;99.90
28654;DHT22;24320;56.980;24.336;2023-07-31T14:41:48;22.30;99.90
28654;DHT22;24320;56.980;24.336;2023-07-31T14:44:15;22.30;99.90
28654;DHT22;24320;56.980;24.336;2023-07-31T14:46:42;22.30;99.90
28654;DHT22;24320;56.980;24.336;2023-07-31T14:49:10;22.30;99.90
28654;DHT22;24320;56.980;24.336;2023-07-31T14:51:37;22.40;99.90
28654;DHT22;24320;56.980;24.336;2023-07-31T14:54:04;22.30;99.90
28654;DHT22;24320;56.980;24.336;2023-07-31T14:56:31;22.20;99.90
28654;DHT22;24320;56.980;24.336;2023-07-31T14:58:58;22.00;99.90
28654;DHT22;24320;56.980;24.336;2023-07-31T15:01:25;22.00;99.90
28654;DHT22;24320;56.980;24.336;2023-07-31T15:03:52;22.00;99.90
28654;DHT22;24320;56.980;24.336;2023-07-31T15:06:19;22.10;99.90
28654;DHT22;24320;56.980;24.336;2023-07-31T15:08:46;22.20;99.90
28654;DHT22;24320;56.980;24.336;2023-07-31T15:11:13;22.20;99.90
28654;DHT22;24320;56.980;24.336;2023-07-31T15:13:42;22.30;99.90
28654;DHT22;24320;56.980;24.336;2023-07-31T15:16:10;22.60;99.90
28654;DHT22;24320;56.980;24.336;2023-07-31T15:18:37;22.90;99.90
28654;DHT22;24320;56.980;24.336;2023-07-31T15:21:04;23.00;99.90
28654;DHT22;24320;56.980;24.336;2023-07-31T15:23:33;23.10;99.90
28654;DHT22;24320;56.980;24.336;2023-07-31T15:26:00;23.10;99.90
28654;DHT22;24320;56.980;24.336;2023-07-31T15:28:28;23.10;99.90
28654;DHT22;24320;56.980;24.336;2023-07-31T15:30:55;23.00;99.90